Time;durP1;ratioP1;P1;durP2;ratioP2;P2;SDS_P1;SDS_P2;PMS_P1;PMS_P2;Temp;Humidity;BMP_temperature;BMP_pressure;BME280_temperature;BME280_humidity;BME280_pressure;Samples;Min_cycle;Max_cycle;Signal;HPM_P1;HPM_P2
2022/08/06 00:02:12;;;;;;;;;;;;;;;26.54;56.77;99934.16;5079875;28;19928;-74
2022/08/06 00:04:40;;;;;;;;;;;;;;;26.54;56.87;99937.78;5052902;28;19963;-75
2022/08/06 00:07:06;;;;;;;;;;;;;;;26.57;56.58;99933.97;5069769;28;19925;-74
2022/08/06 00:09:32;;;;;;;;;;;;;;;26.60;56.47;99933.00;5085360;28;20011;-73
2022/08/06 00:12:00;;;;;;;;;;;;;;;26.63;56.47;99937.78;5071663;28;21358;-74
2022/08/06 00:14:26;;;;;;;;;;;;;;;26.57;56.58;99931.09;5082094;28;20484;-74
2022/08/06 00:16:54;;;;;;;;;;;;;;;26.61;56.77;99928.88;5082711;28;19924;-73
2022/08/06 00:19:20;;;;;;;;;;;;;;;26.68;56.72;99932.66;5081056;28;19916;-73
2022/08/06 00:21:45;;;;;;;;;;;;;;;26.55;57.31;99930.81;5080012;28;20341;-74
2022/08/06 00:24:12;;;;;;;;;;;;;;;26.50;57.22;99925.75;5077607;28;20342;-74
2022/08/06 00:26:43;;;;;;;;;;;;;;;26.44;57.70;99926.88;5072558;28;20293;-74
2022/08/06 00:29:12;;;;;;;;;;;;;;;26.40;57.83;99929.84;5072768;28;19920;-74
2022/08/06 00:31:37;;;;;;;;;;;;;;;26.38;58.17;99929.56;5072527;28;19917;-74
2022/08/06 00:34:06;;;;;;;;;;;;;;;26.31;58.97;99929.84;5072226;28;19947;-74
2022/08/06 00:36:33;;;;;;;;;;;;;;;26.29;58.68;99926.72;5072151;28;19924;-74
2022/08/06 00:39:02;;;;;;;;;;;;;;;26.35;58.80;99927.63;5072129;28;19917;-74
2022/08/06 00:41:30;;;;;;;;;;;;;;;26.41;58.65;99922.88;5072116;28;20463;-74
2022/08/06 00:43:56;;;;;;;;;;;;;;;26.39;59.31;99916.88;5072127;28;19917;-74
2022/08/06 00:46:24;;;;;;;;;;;;;;;26.35;59.42;99919.09;5072075;28;19923;-74
2022/08/06 00:48:53;;;;;;;;;;;;;;;26.40;59.14;99918.44;5071997;28;19923;-74
2022/08/06 00:51:20;;;;;;;;;;;;;;;26.44;59.19;99924.03;5073643;28;20019;-74
2022/08/06 00:53:46;;;;;;;;;;;;;;;26.44;59.13;99919.09;5072286;28;20030;-75
2022/08/06 00:56:11;;;;;;;;;;;;;;;26.39;59.43;99920.50;5071966;28;19916;-74
2022/08/06 00:58:39;;;;;;;;;;;;;;;26.32;59.54;99911.50;5072157;28;19916;-74
2022/08/06 01:01:05;;;;;;;;;;;;;;;26.31;59.60;99909.91;5071892;28;19916;-74
2022/08/06 01:03:30;;;;;;;;;;;;;;;26.23;59.91;99909.44;5072402;28;19923;-74
2022/08/06 01:05:58;;;;;;;;;;;;;;;26.11;60.53;99908.34;5072159;28;20271;-74
2022/08/06 01:08:26;;;;;;;;;;;;;;;26.16;60.40;99906.13;5071638;28;19960;-74
2022/08/06 01:10:54;;;;;;;;;;;;;;;26.17;60.70;99904.88;5071851;28;19920;-74
2022/08/06 01:13:22;;;;;;;;;;;;;;;26.15;60.81;99904.53;5074849;28;19917;-74
2022/08/06 01:16:11;;;;;;;;;;;;;;;26.06;60.79;99894.75;5075520;28;20359;-74
2022/08/06 01:19:12;;;;;;;;;;;;;;;25.96;61.58;99890.31;5064343;28;19928;-74
2022/08/06 01:21:43;;;;;;;;;;;;;;;25.98;61.84;99899.16;5033276;28;20366;-73
2022/08/06 01:24:24;;;;;;;;;;;;;;;25.99;61.82;99888.56;5076170;28;19943;-74
2022/08/06 01:26:51;;;;;;;;;;;;;;;25.99;61.76;99889.34;5075349;28;19924;-74
2022/08/06 01:29:28;;;;;;;;;;;;;;;26.03;61.97;99886.34;5075285;28;19924;-74
2022/08/06 01:32:03;;;;;;;;;;;;;;;26.11;61.79;99890.47;5076071;28;20331;-74
2022/08/06 01:34:31;;;;;;;;;;;;;;;26.18;61.33;99889.34;5075739;28;20022;-74
2022/08/06 01:37:17;;;;;;;;;;;;;;;26.18;61.38;99887.28;5075146;28;19970;-74
2022/08/06 01:39:44;;;;;;;;;;;;;;;26.20;61.10;99887.56;5074050;28;19923;-74
2022/08/06 01:42:10;;;;;;;;;;;;;;;26.13;61.52;99885.84;5076403;28;19916;-74
2022/08/06 01:44:39;;;;;;;;;;;;;;;26.16;61.90;99891.88;5075061;28;19931;-73
2022/08/06 01:47:07;;;;;;;;;;;;;;;26.04;61.59;99885.84;5075231;28;20377;-74
2022/08/06 01:49:33;;;;;;;;;;;;;;;26.01;62.31;99891.75;5074920;28;19963;-74
2022/08/06 01:52:01;;;;;;;;;;;;;;;25.93;62.42;99885.56;5076447;28;19921;-74
2022/08/06 01:54:28;;;;;;;;;;;;;;;26.03;62.73;99892.81;5075068;28;20375;-74
2022/08/06 01:57:02;;;;;;;;;;;;;;;26.06;61.84;99883.34;5074783;28;20053;-74
2022/08/06 01:59:30;;;;;;;;;;;;;;;26.20;61.54;99889.63;5075005;28;19917;-74
2022/08/06 02:02:00;;;;;;;;;;;;;;;26.10;61.82;99889.69;5074664;28;19916;-74
2022/08/06 02:04:30;;;;;;;;;;;;;;;26.11;61.55;99885.56;5074670;28;19917;-74
2022/08/06 02:06:56;;;;;;;;;;;;;;;26.08;61.69;99888.56;5075161;28;19972;-74
2022/08/06 02:09:25;;;;;;;;;;;;;;;26.02;61.79;99888.41;5074026;28;19920;-74
2022/08/06 02:11:54;;;;;;;;;;;;;;;26.00;62.65;99890.94;5074458;28;19916;-74
2022/08/06 02:14:22;;;;;;;;;;;;;;;26.02;62.44;99882.69;5074436;28;19923;-74
2022/08/06 02:16:48;;;;;;;;;;;;;;;26.06;62.72;99893.94;5074350;28;19917;-74
2022/08/06 02:19:14;;;;;;;;;;;;;;;26.04;62.37;99885.84;5074266;28;19917;-74
2022/08/06 02:21:41;;;;;;;;;;;;;;;26.06;62.57;99891.09;5074343;28;20118;-74
2022/08/06 02:24:08;;;;;;;;;;;;;;;26.05;62.64;99892.38;5074645;28;20309;-74
2022/08/06 02:26:37;;;;;;;;;;;;;;;26.05;62.99;99892.38;5074225;28;19922;-73
2022/08/06 02:29:07;;;;;;;;;;;;;;;25.99;63.39;99883.63;5074110;28;20049;-74
2022/08/06 02:31:35;;;;;;;;;;;;;;;25.95;63.79;99877.34;5074646;28;19923;-74
2022/08/06 02:34:03;;;;;;;;;;;;;;;25.92;63.37;99883.19;5074538;28;20355;-74
2022/08/06 02:36:34;;;;;;;;;;;;;;;25.95;63.57;99879.41;5074060;28;20450;-74
2022/08/06 02:39:06;;;;;;;;;;;;;;;25.96;63.29;99878.13;5074189;28;19923;-74
2022/08/06 02:41:54;;;;;;;;;;;;;;;25.94;63.45;99874.94;5073883;28;20003;-74
2022/08/06 02:44:23;;;;;;;;;;;;;;;25.89;64.31;99875.56;5073893;28;20007;-74
2022/08/06 02:46:58;;;;;;;;;;;;;;;25.85;64.69;99875.75;5074368;28;19924;-74
2022/08/06 02:49:28;;;;;;;;;;;;;;;25.80;65.31;99870.69;5073900;28;19922;-74
2022/08/06 02:51:56;;;;;;;;;;;;;;;25.75;65.65;99868.47;5074272;28;19972;-74
2022/08/06 02:54:34;;;;;;;;;;;;;;;25.73;66.08;99856.75;5074198;28;19916;-74
2022/08/06 02:57:01;;;;;;;;;;;;;;;25.79;65.90;99861.34;5074634;28;19993;-74
2022/08/06 02:59:28;;;;;;;;;;;;;;;25.79;66.16;99857.72;5073511;28;19916;-73
2022/08/06 03:02:02;;;;;;;;;;;;;;;25.84;66.20;99852.16;5074107;28;19917;-74
2022/08/06 03:04:31;;;;;;;;;;;;;;;25.87;66.14;99847.56;5073972;28;19939;-74
2022/08/06 03:07:01;;;;;;;;;;;;;;;25.88;66.05;99843.44;5073684;28;19948;-74
2022/08/06 03:09:29;;;;;;;;;;;;;;;25.96;65.86;99856.09;5073240;28;20329;-74
2022/08/06 03:12:00;;;;;;;;;;;;;;;25.89;66.38;99847.91;5073351;28;19920;-74
2022/08/06 03:14:25;;;;;;;;;;;;;;;25.85;66.60;99841.56;5073001;28;19917;-74
2022/08/06 03:16:55;;;;;;;;;;;;;;;25.79;66.71;99843.47;5073765;28;19974;-74
2022/08/06 03:19:20;;;;;;;;;;;;;;;25.78;67.19;99844.72;5073701;28;19917;-74
2022/08/06 03:21:46;;;;;;;;;;;;;;;25.80;67.30;99840.13;5073738;28;19917;-74
2022/08/06 03:24:13;;;;;;;;;;;;;;;25.76;67.43;99844.41;5073385;28;19917;-74
2022/08/06 03:26:41;;;;;;;;;;;;;;;25.72;67.43;99843.75;5073060;28;20024;-74
2022/08/06 03:29:08;;;;;;;;;;;;;;;25.67;67.51;99839.47;5073602;28;19924;-74
2022/08/06 03:31:35;;;;;;;;;;;;;;;25.70;67.93;99843.44;5072986;28;20114;-74
2022/08/06 03:34:03;;;;;;;;;;;;;;;25.67;67.98;99844.38;5073461;28;19924;-74
2022/08/06 03:36:28;;;;;;;;;;;;;;;25.67;68.09;99850.06;5072423;28;19917;-74
2022/08/06 03:38:58;;;;;;;;;;;;;;;25.65;68.53;99844.06;5072737;28;19928;-74
2022/08/06 03:41:25;;;;;;;;;;;;;;;25.65;68.74;99847.69;5073386;28;20430;-74
2022/08/06 03:43:50;;;;;;;;;;;;;;;25.63;69.10;99846.59;5073333;28;20356;-74
2022/08/06 03:46:20;;;;;;;;;;;;;;;25.62;69.12;99845.81;5072904;28;19924;-74
2022/08/06 03:48:52;;;;;;;;;;;;;;;25.70;68.64;99846.28;5073328;28;19916;-74
2022/08/06 03:51:20;;;;;;;;;;;;;;;25.74;68.83;99850.59;5074629;28;20343;-74
2022/08/06 03:53:50;;;;;;;;;;;;;;;25.76;68.79;99853.75;5073242;28;20263;-74
2022/08/06 03:56:18;;;;;;;;;;;;;;;25.71;69.33;99857.19;5072935;28;19917;-74
2022/08/06 03:58:48;;;;;;;;;;;;;;;25.71;69.37;99853.56;5072584;28;19921;-74
2022/08/06 04:01:22;;;;;;;;;;;;;;;25.73;69.46;99866.06;5073113;28;19920;-74
2022/08/06 04:03:50;;;;;;;;;;;;;;;25.66;69.54;99859.88;5072844;28;19917;-74
2022/08/06 04:06:17;;;;;;;;;;;;;;;25.56;70.00;99873.31;5073060;28;19916;-74
2022/08/06 04:08:43;;;;;;;;;;;;;;;25.57;70.12;99875.72;5072155;28;19927;-74
2022/08/06 04:11:10;;;;;;;;;;;;;;;25.56;69.92;99871.28;5072486;28;19920;-74
2022/08/06 04:13:37;;;;;;;;;;;;;;;25.58;70.08;99877.31;5072539;28;19923;-74
2022/08/06 04:16:03;;;;;;;;;;;;;;;25.62;70.12;99877.16;5072186;28;19923;-74
2022/08/06 04:18:30;;;;;;;;;;;;;;;25.66;70.02;99874.91;5072654;28;19920;-74
2022/08/06 04:20:58;;;;;;;;;;;;;;;25.81;69.64;99877.97;5073174;28;19916;-74
2022/08/06 04:23:23;;;;;;;;;;;;;;;25.82;69.63;99880.34;5072683;28;19998;-74
2022/08/06 04:25:53;;;;;;;;;;;;;;;25.78;70.12;99884.59;5072821;28;19920;-74
2022/08/06 04:28:19;;;;;;;;;;;;;;;25.85;69.99;99878.59;5072362;28;19921;-74
2022/08/06 04:30:48;;;;;;;;;;;;;;;25.91;69.65;99882.41;5072779;28;19983;-74
2022/08/06 04:33:15;;;;;;;;;;;;;;;26.08;69.03;99875.09;5073119;28;19916;-74
2022/08/06 04:35:43;;;;;;;;;;;;;;;26.43;67.61;99880.44;5072271;28;19951;-74
2022/08/06 04:38:09;;;;;;;;;;;;;;;26.86;66.61;99889.81;5072204;28;19917;-75
2022/08/06 04:40:35;;;;;;;;;;;;;;;26.97;65.53;99881.50;5072182;28;19917;-74
2022/08/06 04:43:02;;;;;;;;;;;;;;;27.08;65.53;99887.50;5072147;28;19916;-74
2022/08/06 04:45:30;;;;;;;;;;;;;;;27.42;63.24;99885.38;5065862;28;19924;-74
2022/08/06 04:47:59;;;;;;;;;;;;;;;27.16;64.13;99882.22;5056467;28;20308;-74
2022/08/06 04:50:24;;;;;;;;;;;;;;;27.48;62.77;99894.06;5056585;28;20020;-74
2022/08/06 04:52:50;;;;;;;;;;;;;;;27.41;63.22;99898.09;5057524;28;20354;-74
2022/08/06 04:55:19;;;;;;;;;;;;;;;27.58;62.07;99896.38;5057253;28;20320;-74
2022/08/06 04:57:47;;;;;;;;;;;;;;;27.97;61.25;99902.16;5055882;28;20003;-74
2022/08/06 05:00:16;;;;;;;;;;;;;;;28.16;59.91;99897.84;5056023;28;19971;-74
2022/08/06 05:02:41;;;;;;;;;;;;;;;28.44;59.40;99904.13;5056090;28;19917;-74
2022/08/06 05:05:09;;;;;;;;;;;;;;;28.44;59.54;99903.28;5055816;28;20288;-74
2022/08/06 05:07:36;;;;;;;;;;;;;;;28.64;58.17;99902.59;5055952;28;20363;-74
2022/08/06 05:10:01;;;;;;;;;;;;;;;28.98;57.46;99904.00;5055254;28;19952;-74
2022/08/06 05:12:29;;;;;;;;;;;;;;;29.22;56.08;99901.72;5055634;28;19956;-74
2022/08/06 05:15:06;;;;;;;;;;;;;;;29.40;55.68;99897.84;5056141;28;19927;-74
2022/08/06 05:17:36;;;;;;;;;;;;;;;29.72;55.08;99898.81;5055468;28;20012;-74
2022/08/06 05:20:09;;;;;;;;;;;;;;;29.95;54.17;99891.25;5055388;28;19970;-74
2022/08/06 05:22:35;;;;;;;;;;;;;;;30.47;53.32;99890.50;5056977;28;20012;-74
2022/08/06 05:25:00;;;;;;;;;;;;;;;30.67;52.51;99898.22;5056966;28;19956;-75
2022/08/06 05:27:29;;;;;;;;;;;;;;;30.76;52.59;99900.94;5055920;28;19916;-74
2022/08/06 05:29:57;;;;;;;;;;;;;;;30.78;52.28;99892.59;5055541;28;19974;-74
2022/08/06 05:32:22;;;;;;;;;;;;;;;31.11;51.78;99897.00;5055338;28;19917;-77
2022/08/06 05:34:47;;;;;;;;;;;;;;;30.88;52.40;99902.59;5055354;28;20366;-77
2022/08/06 05:37:13;;;;;;;;;;;;;;;31.04;51.96;99895.41;5056709;28;20020;-77
2022/08/06 05:39:41;;;;;;;;;;;;;;;31.07;51.88;99903.00;5055355;28;19928;-77
2022/08/06 05:42:06;;;;;;;;;;;;;;;31.59;51.76;99902.00;5055529;28;19940;-77
2022/08/06 05:44:35;;;;;;;;;;;;;;;31.92;49.54;99910.03;5055077;28;20367;-76
2022/08/06 05:47:12;;;;;;;;;;;;;;;31.76;50.58;99906.53;5055071;28;19952;-77
2022/08/06 05:49:41;;;;;;;;;;;;;;;32.32;49.12;99912.47;5054919;28;19962;-75
2022/08/06 05:52:12;;;;;;;;;;;;;;;32.26;49.11;99905.94;5054622;28;19924;-74
2022/08/06 05:54:41;;;;;;;;;;;;;;;32.09;50.36;99905.13;5054900;28;19917;-75
2022/08/06 05:57:12;;;;;;;;;;;;;;;32.80;48.32;99911.50;5054855;28;19916;-72
2022/08/06 05:59:39;;;;;;;;;;;;;;;32.85;48.99;99907.03;5054176;28;20386;-77
2022/08/06 06:02:07;;;;;;;;;;;;;;;33.09;48.32;99909.44;5054686;28;19970;-77
2022/08/06 06:04:33;;;;;;;;;;;;;;;32.48;51.08;99907.28;5055525;28;19917;-76
2022/08/06 06:07:01;;;;;;;;;;;;;;;32.86;49.25;99915.16;5037947;28;20315;-77
2022/08/06 06:09:27;;;;;;;;;;;;;;;32.90;49.56;99914.16;5055842;28;19943;-77
2022/08/06 06:11:52;;;;;;;;;;;;;;;32.70;50.47;99915.16;5054548;28;19917;-76
2022/08/06 06:14:21;;;;;;;;;;;;;;;32.53;52.62;99913.06;5055010;28;19962;-76
2022/08/06 06:17:02;;;;;;;;;;;;;;;33.41;49.00;99911.97;5054359;28;20371;-77
2022/08/06 06:19:34;;;;;;;;;;;;;;;32.58;51.07;99917.25;5054041;28;19917;-77
2022/08/06 06:22:11;;;;;;;;;;;;;;;32.22;52.60;99910.38;5059840;28;19996;-77
2022/08/06 06:24:48;;;;;;;;;;;;;;;32.51;51.56;99914.91;5072309;28;19924;-77
2022/08/06 06:27:17;;;;;;;;;;;;;;;32.74;51.45;99907.84;5074263;28;19962;-78
2022/08/06 06:29:48;;;;;;;;;;;;;;;32.15;53.11;99908.00;5075664;28;20019;-76
2022/08/06 06:32:17;;;;;;;;;;;;;;;32.37;52.16;99907.28;5074109;28;19920;-77
2022/08/06 06:34:54;;;;;;;;;;;;;;;33.01;51.07;99902.59;5074200;28;19916;-76
2022/08/06 06:37:26;;;;;;;;;;;;;;;33.54;48.90;99917.97;5074050;28;19939;-77
2022/08/06 06:39:57;;;;;;;;;;;;;;;34.11;47.66;99913.56;5073891;28;19928;-77
2022/08/06 06:42:28;;;;;;;;;;;;;;;34.31;47.76;99907.41;5074229;28;19916;-76
2022/08/06 06:45:14;;;;;;;;;;;;;;;34.10;47.66;99907.00;5062524;28;20402;-75
2022/08/06 06:47:39;;;;;;;;;;;;;;;34.54;46.45;99918.84;5054447;28;20283;-76
2022/08/06 06:50:14;;;;;;;;;;;;;;;34.12;48.06;99918.81;5054356;28;19916;-75
2022/08/06 06:52:40;;;;;;;;;;;;;;;34.65;46.22;99913.75;5053585;28;19921;-76
2022/08/06 06:55:12;;;;;;;;;;;;;;;34.98;45.76;99906.13;5054138;28;19917;-75
2022/08/06 06:57:41;;;;;;;;;;;;;;;35.01;45.39;99915.84;5055265;28;19917;-77
2022/08/06 07:00:07;;;;;;;;;;;;;;;35.20;44.91;99924.59;5054948;28;20362;-75
2022/08/06 07:02:34;;;;;;;;;;;;;;;35.20;44.92;99919.56;5053457;28;19959;-74
2022/08/06 07:05:03;;;;;;;;;;;;;;;34.63;46.48;99918.50;5053609;28;19920;-74
2022/08/06 07:07:33;;;;;;;;;;;;;;;34.27;47.39;99912.69;5070349;28;20025;-74
2022/08/06 07:10:02;;;;;;;;;;;;;;;35.00;45.01;99909.28;5052044;28;19921;-75
2022/08/06 07:12:30;;;;;;;;;;;;;;;35.19;44.78;99915.13;5053962;28;19963;-75
2022/08/06 07:14:57;;;;;;;;;;;;;;;34.70;45.81;99905.56;5053328;28;19916;-75
2022/08/06 07:17:24;;;;;;;;;;;;;;;35.18;45.54;99902.78;5053837;28;19917;-75
2022/08/06 07:19:51;;;;;;;;;;;;;;;35.29;45.40;99907.66;5053186;28;19917;-75
2022/08/06 07:22:17;;;;;;;;;;;;;;;34.81;47.05;99902.59;5054287;28;19917;-75
2022/08/06 07:24:43;;;;;;;;;;;;;;;34.75;46.02;99905.53;5053412;28;20352;-75
2022/08/06 07:27:09;;;;;;;;;;;;;;;34.76;46.01;99907.09;5053410;28;19928;-75
2022/08/06 07:29:34;;;;;;;;;;;;;;;34.26;47.65;99904.56;5053190;28;20378;-74
2022/08/06 07:32:01;;;;;;;;;;;;;;;34.61;46.41;99903.78;5054759;28;19917;-75
2022/08/06 07:34:26;;;;;;;;;;;;;;;34.62;45.82;99897.50;5053495;28;19916;-75
2022/08/06 07:36:58;;;;;;;;;;;;;;;34.93;45.08;99896.16;5052926;28;20344;-75
2022/08/06 07:39:28;;;;;;;;;;;;;;;34.98;45.49;99890.91;5052825;28;19917;-75
2022/08/06 07:41:55;;;;;;;;;;;;;;;34.60;45.79;99890.69;5053718;28;20003;-75
2022/08/06 07:44:21;;;;;;;;;;;;;;;34.22;47.05;99893.28;5052734;28;19939;-76
2022/08/06 07:46:49;;;;;;;;;;;;;;;33.75;47.91;99886.69;5052806;28;19916;-76
2022/08/06 07:49:19;;;;;;;;;;;;;;;34.10;46.64;99889.69;5054155;28;20248;-75
2022/08/06 07:51:46;;;;;;;;;;;;;;;35.08;44.79;99892.91;5052665;28;20016;-75
2022/08/06 07:54:15;;;;;;;;;;;;;;;36.27;42.76;99898.03;5052842;28;19940;-76
2022/08/06 07:56:41;;;;;;;;;;;;;;;36.27;40.71;99901.72;5054489;28;19923;-75
2022/08/06 07:59:10;;;;;;;;;;;;;;;37.46;37.41;99899.22;5053837;28;19917;-80
2022/08/06 08:01:37;;;;;;;;;;;;;;;36.97;38.58;99893.00;5052839;28;20383;-74
2022/08/06 08:06:50;;;;;;;;;;;;;;;37.87;36.25;99900.75;5053799;28;19940;-78
2022/08/06 08:09:17;;;;;;;;;;;;;;;38.47;36.08;99897.03;5052012;28;19921;-79
2022/08/06 08:11:44;;;;;;;;;;;;;;;38.72;35.06;99893.75;5052859;28;19964;-82
2022/08/06 08:14:11;;;;;;;;;;;;;;;38.63;35.34;99897.19;5052513;28;19917;-79
2022/08/06 08:16:37;;;;;;;;;;;;;;;37.73;37.54;99899.19;5052693;28;19916;-80
2022/08/06 08:19:02;;;;;;;;;;;;;;;36.49;41.20;99899.84;5052302;28;19924;-79
2022/08/06 08:21:28;;;;;;;;;;;;;;;36.66;40.65;99898.25;5052112;28;19917;-81
2022/08/06 08:24:00;;;;;;;;;;;;;;;36.08;42.30;99895.94;5052283;28;19967;-77
2022/08/06 08:26:28;;;;;;;;;;;;;;;35.53;44.34;99895.34;5052936;28;19982;-79
2022/08/06 08:28:56;;;;;;;;;;;;;;;36.57;42.98;99906.56;5052602;28;19924;-77
2022/08/06 08:31:21;;;;;;;;;;;;;;;36.13;43.30;99903.00;5052927;28;19917;-77
2022/08/06 08:33:47;;;;;;;;;;;;;;;35.90;44.58;99903.28;5052703;28;19940;-85
2022/08/06 08:36:12;;;;;;;;;;;;;;;36.58;42.97;99902.34;5053694;28;20367;-83
2022/08/06 08:38:37;;;;;;;;;;;;;;;36.91;41.49;99913.38;5052275;28;20368;-77
2022/08/06 08:41:23;;;;;;;;;;;;;;;37.00;41.63;99911.41;5052072;28;19917;-78
2022/08/06 08:43:59;;;;;;;;;;;;;;;36.42;41.80;99907.84;5051457;28;19966;-78
2022/08/06 08:46:30;;;;;;;;;;;;;;;36.26;42.21;99917.53;5052788;28;19917;-77
2022/08/06 08:49:00;;;;;;;;;;;;;;;35.24;45.61;99911.41;5053851;28;19931;-76
2022/08/06 08:51:28;;;;;;;;;;;;;;;35.30;45.64;99902.66;5053650;28;19916;-76
2022/08/06 08:53:54;;;;;;;;;;;;;;;35.71;44.88;99908.25;5053796;28;19952;-76
2022/08/06 08:56:20;;;;;;;;;;;;;;;36.22;42.98;99908.38;5052036;28;19963;-80
2022/08/06 08:58:48;;;;;;;;;;;;;;;36.29;42.59;99907.75;5052218;28;19924;-79
2022/08/06 09:01:16;;;;;;;;;;;;;;;36.90;41.59;99913.94;5052278;28;20382;-78
2022/08/06 09:03:45;;;;;;;;;;;;;;;36.62;41.24;99914.38;5052367;28;19977;-77
2022/08/06 09:06:11;;;;;;;;;;;;;;;36.13;43.25;99915.34;5054189;28;20308;-76
2022/08/06 09:08:42;;;;;;;;;;;;;;;37.19;40.15;99915.78;5051824;28;19986;-78
2022/08/06 09:11:07;;;;;;;;;;;;;;;36.28;42.35;99917.78;5052425;28;19917;-76
2022/08/06 09:13:32;;;;;;;;;;;;;;;36.16;42.29;99919.25;5052563;28;19939;-77
2022/08/06 09:15:58;;;;;;;;;;;;;;;36.01;42.61;99913.16;5052604;28;19929;-78
2022/08/06 09:18:27;;;;;;;;;;;;;;;35.32;44.39;99912.38;5053434;28;19925;-77
2022/08/06 09:20:52;;;;;;;;;;;;;;;35.67;43.33;99925.13;5052330;28;19917;-77
2022/08/06 09:23:18;;;;;;;;;;;;;;;35.67;43.51;99925.13;5052339;28;20350;-76
2022/08/06 09:25:47;;;;;;;;;;;;;;;36.56;42.54;99919.50;5051965;28;20358;-77
2022/08/06 09:28:31;;;;;;;;;;;;;;;35.97;41.93;99919.28;5051654;28;19917;-77
2022/08/06 09:30:58;;;;;;;;;;;;;;;35.28;44.21;99928.47;5052481;28;19917;-77
2022/08/06 09:33:23;;;;;;;;;;;;;;;36.29;41.84;99927.25;5052876;28;19917;-77
2022/08/06 09:35:57;;;;;;;;;;;;;;;36.62;41.21;99920.19;5055701;28;19921;-76
2022/08/06 09:38:22;;;;;;;;;;;;;;;35.85;42.76;99912.81;5055265;28;19916;-77
2022/08/06 09:41:03;;;;;;;;;;;;;;;35.68;43.15;99915.91;5054975;28;20360;-76
2022/08/06 09:43:28;;;;;;;;;;;;;;;36.41;42.15;99912.06;5055700;28;20011;-76
2022/08/06 09:45:54;;;;;;;;;;;;;;;36.44;41.74;99910.19;5056322;28;20053;-76
2022/08/06 09:48:23;;;;;;;;;;;;;;;36.91;40.82;99919.19;5055242;28;19917;-77
2022/08/06 09:50:53;;;;;;;;;;;;;;;35.71;42.73;99908.25;5056169;28;19970;-78
2022/08/06 09:53:21;;;;;;;;;;;;;;;36.70;40.11;99921.91;5054835;28;19921;-75
2022/08/06 09:55:46;;;;;;;;;;;;;;;36.86;39.76;99911.34;5055446;28;20344;-77
2022/08/06 09:58:11;;;;;;;;;;;;;;;37.67;38.91;99918.84;5055391;28;19924;-77
2022/08/06 10:00:41;;;;;;;;;;;;;;;36.36;40.71;99901.31;5054753;28;20015;-78
2022/08/06 10:03:08;;;;;;;;;;;;;;;36.86;39.42;99905.56;5055834;28;19924;-78
2022/08/06 10:05:33;;;;;;;;;;;;;;;37.24;39.83;99908.31;5055398;28;19917;-76
2022/08/06 10:08:09;;;;;;;;;;;;;;;36.95;40.35;99907.25;5054847;28;20019;-75
2022/08/06 10:10:39;;;;;;;;;;;;;;;37.56;39.24;99904.56;5054614;28;19964;-76
2022/08/06 10:13:15;;;;;;;;;;;;;;;38.29;37.50;99903.78;5054547;28;19963;-76
2022/08/06 10:15:42;;;;;;;;;;;;;;;38.00;36.84;99906.53;5054481;28;19971;-77
2022/08/06 10:18:10;;;;;;;;;;;;;;;38.34;36.54;99905.00;5055378;28;19956;-76
2022/08/06 10:20:36;;;;;;;;;;;;;;;37.42;38.67;99898.75;5054450;28;19917;-78
2022/08/06 10:23:08;;;;;;;;;;;;;;;37.85;38.45;99903.44;5054345;28;19923;-77
2022/08/06 10:25:34;;;;;;;;;;;;;;;37.46;38.83;99902.09;5055962;28;19917;-76
2022/08/06 10:28:00;;;;;;;;;;;;;;;37.75;38.85;99900.19;5054219;28;19973;-75
2022/08/06 10:30:32;;;;;;;;;;;;;;;37.11;40.09;99893.78;5054272;28;19916;-75
2022/08/06 10:33:01;;;;;;;;;;;;;;;37.65;39.23;99899.06;5055743;28;19997;-76
2022/08/06 10:35:27;;;;;;;;;;;;;;;36.29;43.13;99890.38;5054209;28;19988;-75
2022/08/06 10:37:56;;;;;;;;;;;;;;;36.98;41.07;99894.56;5054089;28;19979;-75
2022/08/06 10:40:22;;;;;;;;;;;;;;;37.02;41.40;99897.13;5054492;28;19995;-75
2022/08/06 10:42:50;;;;;;;;;;;;;;;37.15;40.97;99891.34;5053999;28;19924;-75
2022/08/06 10:45:18;;;;;;;;;;;;;;;37.14;40.66;99895.59;5054276;28;19939;-75
2022/08/06 10:47:44;;;;;;;;;;;;;;;36.56;42.55;99894.19;5054460;28;19935;-79
2022/08/06 10:50:13;;;;;;;;;;;;;;;35.57;45.28;99883.44;5053899;28;19917;-76
2022/08/06 10:52:43;;;;;;;;;;;;;;;35.59;45.55;99884.47;5054417;28;19925;-77
2022/08/06 10:55:14;;;;;;;;;;;;;;;35.85;44.42;99883.88;5053849;28;19920;-76
2022/08/06 10:57:42;;;;;;;;;;;;;;;35.13;45.95;99888.38;5054714;28;19921;-90
2022/08/06 11:00:11;;;;;;;;;;;;;;;35.48;44.90;99880.91;5054459;28;20422;-86
2022/08/06 11:03:00;;;;;;;;;;;;;;;35.98;43.76;99882.41;5053861;28;19940;-79
2022/08/06 11:05:32;;;;;;;;;;;;;;;35.61;44.15;99869.47;5056628;28;19923;-81
2022/08/06 11:08:10;;;;;;;;;;;;;;;35.47;45.51;99867.78;5055495;28;20073;-76
2022/08/06 11:10:44;;;;;;;;;;;;;;;35.76;44.29;99869.00;5053788;28;19974;-76
2022/08/06 11:13:19;;;;;;;;;;;;;;;35.72;44.65;99871.44;5053707;28;20375;-75
2022/08/06 11:15:44;;;;;;;;;;;;;;;36.24;43.80;99873.88;5053575;28;20397;-75
2022/08/06 11:18:13;;;;;;;;;;;;;;;36.27;43.89;99866.97;5053882;28;19921;-75
2022/08/06 11:20:41;;;;;;;;;;;;;;;35.32;46.10;99865.31;5053034;28;20370;-75
2022/08/06 11:23:15;;;;;;;;;;;;;;;35.27;46.29;99869.06;5055005;28;19917;-85
2022/08/06 11:25:45;;;;;;;;;;;;;;;34.93;46.23;99855.69;5054189;28;19939;-88
2022/08/06 11:28:15;;;;;;;;;;;;;;;35.22;46.58;99855.44;5053360;28;19924;-88
2022/08/06 11:30:47;;;;;;;;;;;;;;;35.34;46.71;99863.44;5050278;28;19928;-88
2022/08/06 11:33:14;;;;;;;;;;;;;;;35.21;46.89;99860.44;5053625;28;19960;-90
2022/08/06 11:35:45;;;;;;;;;;;;;;;35.03;47.42;99852.47;5053557;28;19921;-86
2022/08/06 11:38:13;;;;;;;;;;;;;;;34.76;48.19;99851.41;5053189;28;19920;-76
2022/08/06 11:40:57;;;;;;;;;;;;;;;34.57;48.83;99851.31;5053440;28;19920;-76
2022/08/06 11:43:58;;;;;;;;;;;;;;;34.63;48.71;99840.50;5052903;28;20015;-75
2022/08/06 11:46:25;;;;;;;;;;;;;;;34.07;50.00;99847.47;5042325;28;19939;-75
2022/08/06 11:48:59;;;;;;;;;;;;;;;34.11;49.51;99838.53;5052560;28;19974;-75
2022/08/06 11:51:44;;;;;;;;;;;;;;;34.24;50.20;99844.44;5052803;28;19963;-75
2022/08/06 11:54:18;;;;;;;;;;;;;;;34.53;48.85;99853.72;5052781;28;20034;-75
2022/08/06 11:57:01;;;;;;;;;;;;;;;34.17;49.21;99853.69;5054061;28;19917;-76
2022/08/06 11:59:29;;;;;;;;;;;;;;;34.42;48.23;99848.00;5053459;28;20370;-75
2022/08/06 12:01:58;;;;;;;;;;;;;;;34.61;47.25;99848.91;5052768;28;19975;-75
2022/08/06 12:04:42;;;;;;;;;;;;;;;34.48;47.50;99863.22;5052721;28;20018;-76
2022/08/06 12:07:13;;;;;;;;;;;;;;;34.44;47.33;99854.03;5053153;28;20339;-75
2022/08/06 12:09:42;;;;;;;;;;;;;;;34.98;46.60;99854.09;5052542;28;19924;-75
2022/08/06 12:12:27;;;;;;;;;;;;;;;34.36;47.34;99839.41;5052581;28;19927;-75
2022/08/06 12:14:57;;;;;;;;;;;;;;;33.74;48.80;99831.09;5048749;28;19994;-76
2022/08/06 12:17:25;;;;;;;;;;;;;;;33.33;49.81;99831.00;5035937;28;19971;-75
2022/08/06 12:19:51;;;;;;;;;;;;;;;33.10;49.70;99830.28;5052422;28;19917;-76
2022/08/06 12:22:18;;;;;;;;;;;;;;;32.86;50.13;99856.75;5053744;28;20292;-76
2022/08/06 12:24:44;;;;;;;;;;;;;;;32.70;50.48;99855.47;5052534;28;19920;-75
2022/08/06 12:27:10;;;;;;;;;;;;;;;32.12;51.72;99854.34;5052287;28;20007;-76
2022/08/06 12:29:36;;;;;;;;;;;;;;;32.45;50.66;99860.19;5052543;28;19924;-76
2022/08/06 12:32:21;;;;;;;;;;;;;;;32.31;50.49;99847.59;5052291;28;19917;-75
2022/08/06 12:34:51;;;;;;;;;;;;;;;31.86;53.66;99852.50;5053849;28;19944;-75
2022/08/06 12:37:19;;;;;;;;;;;;;;;31.71;53.70;99851.88;5052281;28;20393;-75
2022/08/06 12:42:30;;;;;;;;;;;;;;;31.77;53.52;99873.59;5053791;28;19928;-75
2022/08/06 12:44:58;;;;;;;;;;;;;;;31.33;55.25;99891.44;5052510;28;19921;-74
2022/08/06 12:47:25;;;;;;;;;;;;;;;31.33;55.92;99885.69;5053469;28;19917;-75
2022/08/06 12:49:56;;;;;;;;;;;;;;;31.30;57.00;99875.22;5053729;28;20007;-75
2022/08/06 12:52:24;;;;;;;;;;;;;;;31.17;57.03;99869.91;5052024;28;19928;-75
2022/08/06 12:54:49;;;;;;;;;;;;;;;31.17;57.39;99875.66;5052047;28;19921;-75
2022/08/06 12:57:30;;;;;;;;;;;;;;;31.16;57.06;99876.97;5054308;28;19924;-75
2022/08/06 12:59:56;;;;;;;;;;;;;;;31.14;57.76;99873.00;5053348;28;19917;-76
2022/08/06 13:02:26;;;;;;;;;;;;;;;30.61;59.43;99880.94;5052005;28;19970;-75
2022/08/06 13:05:00;;;;;;;;;;;;;;;30.30;61.16;99872.31;5052032;28;19917;-75